sensor_id;sensor_type;location;lat;lon;timestamp;P1;durP1;ratioP1;P2;durP2;ratioP2
10537;SDS011;5317;49.048;8.468;2022-11-22T00:00:35;7.50;;;3.70;;
10537;SDS011;5317;49.048;8.468;2022-11-22T00:03:02;4.13;;;3.53;;
10537;SDS011;5317;49.048;8.468;2022-11-22T00:05:29;8.10;;;3.87;;
10537;SDS011;5317;49.048;8.468;2022-11-22T00:07:57;6.57;;;4.30;;
10537;SDS011;5317;49.048;8.468;2022-11-22T00:10:25;6.10;;;3.97;;
10537;SDS011;5317;49.048;8.468;2022-11-22T00:12:52;4.73;;;3.23;;
10537;SDS011;5317;49.048;8.468;2022-11-22T00:15:20;5.37;;;3.13;;
10537;SDS011;5317;49.048;8.468;2022-11-22T00:17:47;6.63;;;3.17;;
10537;SDS011;5317;49.048;8.468;2022-11-22T00:20:14;6.23;;;3.53;;
10537;SDS011;5317;49.048;8.468;2022-11-22T00:22:41;7.83;;;3.37;;
10537;SDS011;5317;49.048;8.468;2022-11-22T00:25:08;4.53;;;2.47;;
10537;SDS011;5317;49.048;8.468;2022-11-22T00:27:37;6.27;;;2.80;;
10537;SDS011;5317;49.048;8.468;2022-11-22T00:30:05;4.97;;;2.77;;
10537;SDS011;5317;49.048;8.468;2022-11-22T00:32:33;5.70;;;2.90;;
10537;SDS011;5317;49.048;8.468;2022-11-22T00:35:00;4.27;;;2.37;;
10537;SDS011;5317;49.048;8.468;2022-11-22T00:37:27;5.17;;;2.70;;
10537;SDS011;5317;49.048;8.468;2022-11-22T00:39:54;4.50;;;2.10;;
10537;SDS011;5317;49.048;8.468;2022-11-22T00:42:21;3.43;;;2.20;;
10537;SDS011;5317;49.048;8.468;2022-11-22T00:44:49;3.90;;;2.37;;
10537;SDS011;5317;49.048;8.468;2022-11-22T00:47:16;3.57;;;2.20;;
10537;SDS011;5317;49.048;8.468;2022-11-22T00:49:44;3.43;;;2.63;;
10537;SDS011;5317;49.048;8.468;2022-11-22T00:52:11;4.50;;;2.47;;
10537;SDS011;5317;49.048;8.468;2022-11-22T00:54:38;4.40;;;2.80;;
10537;SDS011;5317;49.048;8.468;2022-11-22T00:57:05;5.37;;;1.97;;
10537;SDS011;5317;49.048;8.468;2022-11-22T00:59:33;4.13;;;2.40;;
10537;SDS011;5317;49.048;8.468;2022-11-22T01:02:01;3.37;;;2.40;;
10537;SDS011;5317;49.048;8.468;2022-11-22T01:04:28;4.60;;;2.30;;
10537;SDS011;5317;49.048;8.468;2022-11-22T01:06:55;3.03;;;2.17;;
10537;SDS011;5317;49.048;8.468;2022-11-22T01:09:22;2.70;;;2.00;;
10537;SDS011;5317;49.048;8.468;2022-11-22T01:11:50;3.97;;;2.27;;
10537;SDS011;5317;49.048;8.468;2022-11-22T01:14:18;2.70;;;2.10;;
10537;SDS011;5317;49.048;8.468;2022-11-22T01:16:45;3.57;;;1.90;;
10537;SDS011;5317;49.048;8.468;2022-11-22T01:19:15;3.60;;;1.90;;
10537;SDS011;5317;49.048;8.468;2022-11-22T01:21:42;3.10;;;2.40;;
10537;SDS011;5317;49.048;8.468;2022-11-22T01:24:09;3.73;;;2.20;;
10537;SDS011;5317;49.048;8.468;2022-11-22T01:26:36;3.63;;;2.27;;
10537;SDS011;5317;49.048;8.468;2022-11-22T01:29:04;4.23;;;2.10;;
10537;SDS011;5317;49.048;8.468;2022-11-22T01:31:31;4.67;;;2.37;;
10537;SDS011;5317;49.048;8.468;2022-11-22T01:33:58;3.07;;;1.97;;
10537;SDS011;5317;49.048;8.468;2022-11-22T01:36:26;2.57;;;1.87;;
10537;SDS011;5317;49.048;8.468;2022-11-22T01:38:54;2.90;;;1.80;;
10537;SDS011;5317;49.048;8.468;2022-11-22T01:41:21;3.37;;;2.00;;
10537;SDS011;5317;49.048;8.468;2022-11-22T01:43:49;4.47;;;1.97;;
10537;SDS011;5317;49.048;8.468;2022-11-22T01:46:26;3.33;;;1.90;;
10537;SDS011;5317;49.048;8.468;2022-11-22T01:49:00;3.13;;;2.00;;
10537;SDS011;5317;49.048;8.468;2022-11-22T01:51:38;3.00;;;1.70;;
10537;SDS011;5317;49.048;8.468;2022-11-22T01:54:12;3.77;;;2.13;;
10537;SDS011;5317;49.048;8.468;2022-11-22T01:56:49;2.70;;;1.90;;
10537;SDS011;5317;49.048;8.468;2022-11-22T01:59:23;2.43;;;1.70;;
10537;SDS011;5317;49.048;8.468;2022-11-22T02:01:56;2.80;;;2.20;;
10537;SDS011;5317;49.048;8.468;2022-11-22T02:04:24;2.40;;;1.83;;
10537;SDS011;5317;49.048;8.468;2022-11-22T02:06:57;3.17;;;1.80;;
10537;SDS011;5317;49.048;8.468;2022-11-22T02:09:33;3.90;;;1.87;;
10537;SDS011;5317;49.048;8.468;2022-11-22T02:12:03;5.30;;;2.27;;
10537;SDS011;5317;49.048;8.468;2022-11-22T02:14:34;3.83;;;1.77;;
10537;SDS011;5317;49.048;8.468;2022-11-22T02:17:03;2.93;;;1.83;;
10537;SDS011;5317;49.048;8.468;2022-11-22T02:19:33;2.80;;;1.67;;
10537;SDS011;5317;49.048;8.468;2022-11-22T02:22:11;2.13;;;1.50;;
10537;SDS011;5317;49.048;8.468;2022-11-22T02:24:52;3.87;;;1.83;;
10537;SDS011;5317;49.048;8.468;2022-11-22T02:27:26;3.27;;;1.70;;
10537;SDS011;5317;49.048;8.468;2022-11-22T02:29:53;4.50;;;1.83;;
10537;SDS011;5317;49.048;8.468;2022-11-22T02:32:20;2.73;;;1.73;;
10537;SDS011;5317;49.048;8.468;2022-11-22T02:34:47;3.60;;;1.70;;
10537;SDS011;5317;49.048;8.468;2022-11-22T02:37:17;3.63;;;1.70;;
10537;SDS011;5317;49.048;8.468;2022-11-22T02:39:51;7.87;;;2.27;;
10537;SDS011;5317;49.048;8.468;2022-11-22T02:42:25;4.33;;;2.03;;
10537;SDS011;5317;49.048;8.468;2022-11-22T02:44:56;6.90;;;2.20;;
10537;SDS011;5317;49.048;8.468;2022-11-22T02:47:23;4.60;;;1.90;;
10537;SDS011;5317;49.048;8.468;2022-11-22T02:49:51;3.27;;;2.23;;
10537;SDS011;5317;49.048;8.468;2022-11-22T02:52:18;6.03;;;1.87;;
10537;SDS011;5317;49.048;8.468;2022-11-22T02:54:45;3.93;;;1.93;;
10537;SDS011;5317;49.048;8.468;2022-11-22T02:57:13;5.73;;;2.00;;
10537;SDS011;5317;49.048;8.468;2022-11-22T02:59:41;5.00;;;2.10;;
10537;SDS011;5317;49.048;8.468;2022-11-22T03:02:08;4.87;;;2.10;;
10537;SDS011;5317;49.048;8.468;2022-11-22T03:04:35;5.93;;;2.27;;
10537;SDS011;5317;49.048;8.468;2022-11-22T03:07:02;6.77;;;2.33;;
10537;SDS011;5317;49.048;8.468;2022-11-22T03:09:30;6.90;;;2.10;;
10537;SDS011;5317;49.048;8.468;2022-11-22T03:11:57;4.30;;;2.00;;
10537;SDS011;5317;49.048;8.468;2022-11-22T03:14:24;4.13;;;2.03;;
10537;SDS011;5317;49.048;8.468;2022-11-22T03:16:53;4.30;;;1.90;;
10537;SDS011;5317;49.048;8.468;2022-11-22T03:19:20;4.80;;;1.97;;
10537;SDS011;5317;49.048;8.468;2022-11-22T03:21:47;7.03;;;2.10;;
10537;SDS011;5317;49.048;8.468;2022-11-22T03:24:14;3.57;;;2.23;;
10537;SDS011;5317;49.048;8.468;2022-11-22T03:26:45;4.93;;;2.13;;
10537;SDS011;5317;49.048;8.468;2022-11-22T03:29:13;6.30;;;2.17;;
10537;SDS011;5317;49.048;8.468;2022-11-22T03:31:40;5.50;;;1.53;;
10537;SDS011;5317;49.048;8.468;2022-11-22T03:34:11;7.00;;;2.60;;
10537;SDS011;5317;49.048;8.468;2022-11-22T03:36:38;6.63;;;2.37;;
10537;SDS011;5317;49.048;8.468;2022-11-22T03:39:06;4.97;;;2.00;;
10537;SDS011;5317;49.048;8.468;2022-11-22T03:41:33;4.33;;;1.93;;
10537;SDS011;5317;49.048;8.468;2022-11-22T03:44:00;6.47;;;2.47;;
10537;SDS011;5317;49.048;8.468;2022-11-22T03:46:27;7.17;;;2.47;;
10537;SDS011;5317;49.048;8.468;2022-11-22T03:48:54;5.77;;;2.70;;
10537;SDS011;5317;49.048;8.468;2022-11-22T03:51:23;7.83;;;2.33;;
10537;SDS011;5317;49.048;8.468;2022-11-22T03:53:51;7.93;;;2.30;;
10537;SDS011;5317;49.048;8.468;2022-11-22T03:56:18;6.30;;;2.37;;
10537;SDS011;5317;49.048;8.468;2022-11-22T03:58:45;5.50;;;2.50;;
10537;SDS011;5317;49.048;8.468;2022-11-22T04:01:12;6.20;;;2.30;;
10537;SDS011;5317;49.048;8.468;2022-11-22T04:03:39;5.90;;;2.33;;
10537;SDS011;5317;49.048;8.468;2022-11-22T04:06:06;5.53;;;2.43;;
10537;SDS011;5317;49.048;8.468;2022-11-22T04:08:34;7.53;;;2.87;;
10537;SDS011;5317;49.048;8.468;2022-11-22T04:11:01;8.67;;;2.80;;
10537;SDS011;5317;49.048;8.468;2022-11-22T04:13:29;7.03;;;2.70;;
10537;SDS011;5317;49.048;8.468;2022-11-22T04:16:10;5.63;;;1.90;;
10537;SDS011;5317;49.048;8.468;2022-11-22T04:18:37;5.23;;;1.90;;
10537;SDS011;5317;49.048;8.468;2022-11-22T04:21:04;6.57;;;2.00;;
10537;SDS011;5317;49.048;8.468;2022-11-22T04:23:50;8.07;;;2.47;;
10537;SDS011;5317;49.048;8.468;2022-11-22T04:26:31;6.93;;;2.40;;
10537;SDS011;5317;49.048;8.468;2022-11-22T04:28:58;6.47;;;2.57;;
10537;SDS011;5317;49.048;8.468;2022-11-22T04:31:25;5.97;;;2.40;;
10537;SDS011;5317;49.048;8.468;2022-11-22T04:34:09;8.53;;;2.13;;
10537;SDS011;5317;49.048;8.468;2022-11-22T04:36:36;8.80;;;2.50;;
10537;SDS011;5317;49.048;8.468;2022-11-22T04:39:05;10.67;;;2.67;;
10537;SDS011;5317;49.048;8.468;2022-11-22T04:41:32;6.47;;;2.17;;
10537;SDS011;5317;49.048;8.468;2022-11-22T04:43:59;8.00;;;2.57;;
10537;SDS011;5317;49.048;8.468;2022-11-22T04:46:55;6.00;;;2.70;;
10537;SDS011;5317;49.048;8.468;2022-11-22T04:49:22;10.37;;;3.70;;
10537;SDS011;5317;49.048;8.468;2022-11-22T04:51:50;9.13;;;2.50;;
10537;SDS011;5317;49.048;8.468;2022-11-22T04:54:36;5.53;;;2.17;;
10537;SDS011;5317;49.048;8.468;2022-11-22T04:57:03;4.63;;;2.20;;
10537;SDS011;5317;49.048;8.468;2022-11-22T04:59:30;9.53;;;2.60;;
10537;SDS011;5317;49.048;8.468;2022-11-22T05:01:57;6.47;;;2.40;;
10537;SDS011;5317;49.048;8.468;2022-11-22T05:04:24;8.53;;;2.63;;
10537;SDS011;5317;49.048;8.468;2022-11-22T05:06:51;7.70;;;2.20;;
10537;SDS011;5317;49.048;8.468;2022-11-22T05:09:20;10.03;;;2.63;;
10537;SDS011;5317;49.048;8.468;2022-11-22T05:11:49;7.57;;;2.30;;
10537;SDS011;5317;49.048;8.468;2022-11-22T05:14:17;7.90;;;2.57;;
10537;SDS011;5317;49.048;8.468;2022-11-22T05:16:44;7.03;;;2.50;;
10537;SDS011;5317;49.048;8.468;2022-11-22T05:19:12;5.80;;;2.20;;
10537;SDS011;5317;49.048;8.468;2022-11-22T05:21:39;7.67;;;2.50;;
10537;SDS011;5317;49.048;8.468;2022-11-22T05:24:07;6.27;;;2.70;;
10537;SDS011;5317;49.048;8.468;2022-11-22T05:26:35;6.37;;;2.27;;
10537;SDS011;5317;49.048;8.468;2022-11-22T05:29:04;8.30;;;2.77;;
10537;SDS011;5317;49.048;8.468;2022-11-22T05:31:33;5.93;;;2.27;;
10537;SDS011;5317;49.048;8.468;2022-11-22T05:34:03;5.67;;;1.93;;
10537;SDS011;5317;49.048;8.468;2022-11-22T05:36:31;9.83;;;5.30;;
10537;SDS011;5317;49.048;8.468;2022-11-22T05:39:00;14.03;;;10.50;;
10537;SDS011;5317;49.048;8.468;2022-11-22T05:41:28;13.57;;;6.53;;
10537;SDS011;5317;49.048;8.468;2022-11-22T05:43:56;11.30;;;5.23;;
10537;SDS011;5317;49.048;8.468;2022-11-22T05:46:25;9.37;;;3.30;;
10537;SDS011;5317;49.048;8.468;2022-11-22T05:48:55;9.03;;;4.70;;
10537;SDS011;5317;49.048;8.468;2022-11-22T05:51:24;8.30;;;3.90;;
10537;SDS011;5317;49.048;8.468;2022-11-22T05:53:55;11.23;;;5.40;;
10537;SDS011;5317;49.048;8.468;2022-11-22T05:56:22;11.67;;;5.33;;
10537;SDS011;5317;49.048;8.468;2022-11-22T05:58:50;8.67;;;3.63;;
10537;SDS011;5317;49.048;8.468;2022-11-22T06:01:18;7.50;;;3.53;;
10537;SDS011;5317;49.048;8.468;2022-11-22T06:03:49;5.77;;;2.50;;
10537;SDS011;5317;49.048;8.468;2022-11-22T06:06:17;7.77;;;3.10;;
10537;SDS011;5317;49.048;8.468;2022-11-22T06:08:45;9.07;;;3.30;;
10537;SDS011;5317;49.048;8.468;2022-11-22T06:11:16;5.90;;;2.17;;
10537;SDS011;5317;49.048;8.468;2022-11-22T06:13:47;8.93;;;4.57;;
10537;SDS011;5317;49.048;8.468;2022-11-22T06:16:18;10.63;;;3.50;;
10537;SDS011;5317;49.048;8.468;2022-11-22T06:18:45;9.33;;;3.57;;
10537;SDS011;5317;49.048;8.468;2022-11-22T06:21:15;6.97;;;4.30;;
10537;SDS011;5317;49.048;8.468;2022-11-22T06:23:44;12.07;;;4.27;;
10537;SDS011;5317;49.048;8.468;2022-11-22T06:26:13;7.30;;;4.63;;
10537;SDS011;5317;49.048;8.468;2022-11-22T06:28:44;7.97;;;4.00;;
10537;SDS011;5317;49.048;8.468;2022-11-22T06:31:13;6.77;;;4.00;;
10537;SDS011;5317;49.048;8.468;2022-11-22T06:33:43;7.87;;;3.90;;
10537;SDS011;5317;49.048;8.468;2022-11-22T06:36:11;5.40;;;3.10;;
10537;SDS011;5317;49.048;8.468;2022-11-22T06:38:43;9.93;;;2.73;;
10537;SDS011;5317;49.048;8.468;2022-11-22T06:41:12;6.33;;;3.33;;
10537;SDS011;5317;49.048;8.468;2022-11-22T06:43:42;8.30;;;4.10;;
10537;SDS011;5317;49.048;8.468;2022-11-22T06:46:12;4.87;;;3.00;;
10537;SDS011;5317;49.048;8.468;2022-11-22T06:48:40;6.33;;;2.90;;
10537;SDS011;5317;49.048;8.468;2022-11-22T06:51:12;7.27;;;3.53;;
10537;SDS011;5317;49.048;8.468;2022-11-22T06:53:42;8.67;;;3.27;;
10537;SDS011;5317;49.048;8.468;2022-11-22T06:56:11;6.00;;;3.70;;
10537;SDS011;5317;49.048;8.468;2022-11-22T06:58:40;4.20;;;2.80;;
10537;SDS011;5317;49.048;8.468;2022-11-22T07:01:08;8.87;;;3.20;;
10537;SDS011;5317;49.048;8.468;2022-11-22T07:03:38;9.97;;;2.73;;
10537;SDS011;5317;49.048;8.468;2022-11-22T07:06:07;7.40;;;2.33;;
10537;SDS011;5317;49.048;8.468;2022-11-22T07:08:39;8.13;;;2.97;;
10537;SDS011;5317;49.048;8.468;2022-11-22T07:11:08;5.90;;;2.53;;
10537;SDS011;5317;49.048;8.468;2022-11-22T07:13:38;8.87;;;3.10;;
10537;SDS011;5317;49.048;8.468;2022-11-22T07:16:06;6.53;;;3.03;;
10537;SDS011;5317;49.048;8.468;2022-11-22T07:18:36;8.77;;;2.40;;
10537;SDS011;5317;49.048;8.468;2022-11-22T07:21:04;4.93;;;2.30;;
10537;SDS011;5317;49.048;8.468;2022-11-22T07:23:34;7.30;;;2.53;;
10537;SDS011;5317;49.048;8.468;2022-11-22T07:26:05;4.80;;;2.20;;
10537;SDS011;5317;49.048;8.468;2022-11-22T07:28:35;5.37;;;2.70;;
10537;SDS011;5317;49.048;8.468;2022-11-22T07:31:04;7.50;;;2.87;;
10537;SDS011;5317;49.048;8.468;2022-11-22T07:33:34;6.83;;;2.40;;
10537;SDS011;5317;49.048;8.468;2022-11-22T07:36:03;6.17;;;2.37;;
10537;SDS011;5317;49.048;8.468;2022-11-22T07:38:32;6.33;;;2.80;;
10537;SDS011;5317;49.048;8.468;2022-11-22T07:41:00;6.50;;;3.37;;
10537;SDS011;5317;49.048;8.468;2022-11-22T07:43:29;8.50;;;2.83;;
10537;SDS011;5317;49.048;8.468;2022-11-22T07:45:57;8.27;;;2.80;;
10537;SDS011;5317;49.048;8.468;2022-11-22T07:48:24;9.27;;;3.57;;
10537;SDS011;5317;49.048;8.468;2022-11-22T07:50:51;4.47;;;2.80;;
10537;SDS011;5317;49.048;8.468;2022-11-22T07:53:19;7.50;;;3.13;;
10537;SDS011;5317;49.048;8.468;2022-11-22T07:55:46;6.47;;;2.93;;
10537;SDS011;5317;49.048;8.468;2022-11-22T07:58:13;7.63;;;2.70;;
10537;SDS011;5317;49.048;8.468;2022-11-22T08:00:42;7.80;;;3.60;;
10537;SDS011;5317;49.048;8.468;2022-11-22T08:03:09;6.63;;;2.93;;
10537;SDS011;5317;49.048;8.468;2022-11-22T08:05:36;4.83;;;2.13;;
10537;SDS011;5317;49.048;8.468;2022-11-22T08:08:03;5.40;;;2.40;;
10537;SDS011;5317;49.048;8.468;2022-11-22T08:10:31;7.37;;;2.73;;
10537;SDS011;5317;49.048;8.468;2022-11-22T08:12:58;8.80;;;3.00;;
10537;SDS011;5317;49.048;8.468;2022-11-22T08:15:30;7.50;;;2.40;;
10537;SDS011;5317;49.048;8.468;2022-11-22T08:17:59;8.47;;;2.53;;
10537;SDS011;5317;49.048;8.468;2022-11-22T08:20:26;7.63;;;2.20;;
10537;SDS011;5317;49.048;8.468;2022-11-22T08:22:53;5.10;;;2.90;;
10537;SDS011;5317;49.048;8.468;2022-11-22T08:25:20;6.60;;;2.70;;
10537;SDS011;5317;49.048;8.468;2022-11-22T08:27:48;7.03;;;2.30;;
10537;SDS011;5317;49.048;8.468;2022-11-22T08:30:15;9.10;;;2.50;;
10537;SDS011;5317;49.048;8.468;2022-11-22T08:32:43;7.00;;;2.60;;
10537;SDS011;5317;49.048;8.468;2022-11-22T08:35:12;5.37;;;2.20;;
10537;SDS011;5317;49.048;8.468;2022-11-22T08:37:39;4.93;;;2.03;;
10537;SDS011;5317;49.048;8.468;2022-11-22T08:40:07;5.63;;;2.00;;
10537;SDS011;5317;49.048;8.468;2022-11-22T08:42:35;7.03;;;2.47;;
10537;SDS011;5317;49.048;8.468;2022-11-22T08:45:03;4.90;;;2.13;;
10537;SDS011;5317;49.048;8.468;2022-11-22T08:47:32;4.43;;;2.97;;
10537;SDS011;5317;49.048;8.468;2022-11-22T08:49:59;8.83;;;2.20;;
10537;SDS011;5317;49.048;8.468;2022-11-22T08:52:28;5.93;;;2.30;;
10537;SDS011;5317;49.048;8.468;2022-11-22T08:54:55;6.33;;;2.30;;
10537;SDS011;5317;49.048;8.468;2022-11-22T08:57:22;3.90;;;2.40;;
10537;SDS011;5317;49.048;8.468;2022-11-22T08:59:50;5.53;;;2.43;;
10537;SDS011;5317;49.048;8.468;2022-11-22T09:02:17;7.97;;;2.33;;
10537;SDS011;5317;49.048;8.468;2022-11-22T09:04:44;4.93;;;2.23;;
10537;SDS011;5317;49.048;8.468;2022-11-22T09:07:11;7.87;;;2.57;;
10537;SDS011;5317;49.048;8.468;2022-11-22T09:09:41;5.90;;;2.63;;
10537;SDS011;5317;49.048;8.468;2022-11-22T09:12:08;4.27;;;2.07;;
10537;SDS011;5317;49.048;8.468;2022-11-22T09:14:36;6.17;;;2.40;;
10537;SDS011;5317;49.048;8.468;2022-11-22T09:17:04;6.70;;;3.00;;
10537;SDS011;5317;49.048;8.468;2022-11-22T09:19:32;5.30;;;2.60;;
10537;SDS011;5317;49.048;8.468;2022-11-22T09:21:59;7.83;;;2.30;;
10537;SDS011;5317;49.048;8.468;2022-11-22T09:24:26;6.77;;;2.43;;
10537;SDS011;5317;49.048;8.468;2022-11-22T09:26:54;5.57;;;2.10;;
10537;SDS011;5317;49.048;8.468;2022-11-22T09:29:22;6.63;;;2.40;;
10537;SDS011;5317;49.048;8.468;2022-11-22T09:31:49;5.47;;;2.20;;
10537;SDS011;5317;49.048;8.468;2022-11-22T09:34:16;5.30;;;2.23;;
10537;SDS011;5317;49.048;8.468;2022-11-22T09:36:43;6.67;;;1.80;;
10537;SDS011;5317;49.048;8.468;2022-11-22T09:39:11;5.70;;;2.27;;
10537;SDS011;5317;49.048;8.468;2022-11-22T09:44:58;3.50;;;1.93;;
10537;SDS011;5317;49.048;8.468;2022-11-22T09:48:00;4.80;;;1.80;;
10537;SDS011;5317;49.048;8.468;2022-11-22T09:50:50;5.20;;;2.20;;
10537;SDS011;5317;49.048;8.468;2022-11-22T09:53:28;6.83;;;4.80;;
10537;SDS011;5317;49.048;8.468;2022-11-22T09:56:03;4.40;;;2.00;;
10537;SDS011;5317;49.048;8.468;2022-11-22T09:58:39;5.67;;;1.97;;
10537;SDS011;5317;49.048;8.468;2022-11-22T10:01:14;5.33;;;1.93;;
10537;SDS011;5317;49.048;8.468;2022-11-22T10:03:47;4.23;;;2.27;;
10537;SDS011;5317;49.048;8.468;2022-11-22T10:06:20;6.33;;;2.17;;
10537;SDS011;5317;49.048;8.468;2022-11-22T10:08:56;5.73;;;2.23;;
10537;SDS011;5317;49.048;8.468;2022-11-22T10:11:34;3.27;;;2.03;;
10537;SDS011;5317;49.048;8.468;2022-11-22T10:14:13;4.17;;;1.80;;
10537;SDS011;5317;49.048;8.468;2022-11-22T10:16:56;5.27;;;1.83;;
10537;SDS011;5317;49.048;8.468;2022-11-22T10:19:36;5.13;;;2.07;;
10537;SDS011;5317;49.048;8.468;2022-11-22T10:22:13;4.07;;;1.87;;
10537;SDS011;5317;49.048;8.468;2022-11-22T10:24:41;6.63;;;1.97;;
10537;SDS011;5317;49.048;8.468;2022-11-22T10:27:10;6.30;;;2.00;;
10537;SDS011;5317;49.048;8.468;2022-11-22T10:29:40;5.30;;;2.27;;
10537;SDS011;5317;49.048;8.468;2022-11-22T10:32:17;4.07;;;1.60;;
10537;SDS011;5317;49.048;8.468;2022-11-22T10:34:57;3.63;;;1.70;;
10537;SDS011;5317;49.048;8.468;2022-11-22T10:37:56;3.20;;;1.70;;
10537;SDS011;5317;49.048;8.468;2022-11-22T10:40:52;5.70;;;2.00;;
10537;SDS011;5317;49.048;8.468;2022-11-22T10:43:36;11.30;;;1.90;;
10537;SDS011;5317;49.048;8.468;2022-11-22T10:46:16;5.83;;;2.13;;
10537;SDS011;5317;49.048;8.468;2022-11-22T10:48:56;3.10;;;1.43;;
10537;SDS011;5317;49.048;8.468;2022-11-22T10:51:40;4.60;;;2.00;;
10537;SDS011;5317;49.048;8.468;2022-11-22T10:54:19;5.60;;;1.67;;
10537;SDS011;5317;49.048;8.468;2022-11-22T10:56:58;5.53;;;1.90;;
10537;SDS011;5317;49.048;8.468;2022-11-22T10:59:49;4.07;;;2.10;;
10537;SDS011;5317;49.048;8.468;2022-11-22T11:02:36;6.33;;;2.03;;
10537;SDS011;5317;49.048;8.468;2022-11-22T11:05:29;4.30;;;1.60;;
10537;SDS011;5317;49.048;8.468;2022-11-22T11:08:06;3.63;;;2.00;;
10537;SDS011;5317;49.048;8.468;2022-11-22T11:10:39;6.20;;;2.07;;
10537;SDS011;5317;49.048;8.468;2022-11-22T11:13:13;4.23;;;1.80;;
10537;SDS011;5317;49.048;8.468;2022-11-22T11:15:49;4.43;;;1.80;;
10537;SDS011;5317;49.048;8.468;2022-11-22T11:18:22;5.03;;;1.93;;
10537;SDS011;5317;49.048;8.468;2022-11-22T11:20:56;4.90;;;1.37;;
10537;SDS011;5317;49.048;8.468;2022-11-22T11:23:23;4.57;;;2.00;;
10537;SDS011;5317;49.048;8.468;2022-11-22T11:25:52;5.13;;;2.70;;
10537;SDS011;5317;49.048;8.468;2022-11-22T11:28:21;5.67;;;2.00;;
10537;SDS011;5317;49.048;8.468;2022-11-22T11:30:51;5.57;;;2.10;;
10537;SDS011;5317;49.048;8.468;2022-11-22T11:33:26;5.53;;;2.10;;
10537;SDS011;5317;49.048;8.468;2022-11-22T11:35:55;9.67;;;2.30;;
10537;SDS011;5317;49.048;8.468;2022-11-22T11:38:33;4.70;;;1.80;;
10537;SDS011;5317;49.048;8.468;2022-11-22T11:41:17;2.93;;;2.20;;
10537;SDS011;5317;49.048;8.468;2022-11-22T11:43:51;6.00;;;2.00;;
10537;SDS011;5317;49.048;8.468;2022-11-22T11:46:21;3.30;;;1.60;;
10537;SDS011;5317;49.048;8.468;2022-11-22T11:48:51;4.27;;;1.70;;
10537;SDS011;5317;49.048;8.468;2022-11-22T11:51:21;4.13;;;2.00;;
10537;SDS011;5317;49.048;8.468;2022-11-22T11:53:58;4.13;;;1.53;;
10537;SDS011;5317;49.048;8.468;2022-11-22T11:56:34;3.87;;;2.53;;
10537;SDS011;5317;49.048;8.468;2022-11-22T11:59:12;4.00;;;1.53;;
10537;SDS011;5317;49.048;8.468;2022-11-22T12:01:46;6.07;;;1.70;;
10537;SDS011;5317;49.048;8.468;2022-11-22T12:04:28;4.13;;;1.60;;
10537;SDS011;5317;49.048;8.468;2022-11-22T12:07:02;3.97;;;1.43;;
10537;SDS011;5317;49.048;8.468;2022-11-22T12:09:44;2.47;;;1.30;;
10537;SDS011;5317;49.048;8.468;2022-11-22T12:15:19;3.50;;;1.60;;
10537;SDS011;5317;49.048;8.468;2022-11-22T12:17:56;4.03;;;1.50;;
10537;SDS011;5317;49.048;8.468;2022-11-22T12:20:39;3.93;;;1.53;;
10537;SDS011;5317;49.048;8.468;2022-11-22T12:23:19;4.63;;;1.43;;
10537;SDS011;5317;49.048;8.468;2022-11-22T12:25:56;2.67;;;1.23;;
10537;SDS011;5317;49.048;8.468;2022-11-22T12:28:25;3.77;;;1.33;;
10537;SDS011;5317;49.048;8.468;2022-11-22T12:30:55;3.67;;;1.70;;
10537;SDS011;5317;49.048;8.468;2022-11-22T12:33:32;5.53;;;1.43;;
10537;SDS011;5317;49.048;8.468;2022-11-22T12:36:07;3.47;;;1.30;;
10537;SDS011;5317;49.048;8.468;2022-11-22T12:38:43;2.27;;;1.43;;
10537;SDS011;5317;49.048;8.468;2022-11-22T12:41:15;3.83;;;1.33;;
10537;SDS011;5317;49.048;8.468;2022-11-22T12:43:48;2.13;;;1.30;;
10537;SDS011;5317;49.048;8.468;2022-11-22T12:46:20;3.67;;;1.73;;
10537;SDS011;5317;49.048;8.468;2022-11-22T12:48:54;1.90;;;1.27;;
10537;SDS011;5317;49.048;8.468;2022-11-22T12:51:29;4.03;;;1.20;;
10537;SDS011;5317;49.048;8.468;2022-11-22T12:54:08;3.47;;;1.60;;
10537;SDS011;5317;49.048;8.468;2022-11-22T12:56:43;3.73;;;1.70;;
10537;SDS011;5317;49.048;8.468;2022-11-22T12:59:19;1.60;;;1.13;;
10537;SDS011;5317;49.048;8.468;2022-11-22T13:01:59;2.97;;;1.30;;
10537;SDS011;5317;49.048;8.468;2022-11-22T13:04:43;3.87;;;1.50;;
10537;SDS011;5317;49.048;8.468;2022-11-22T13:07:23;2.57;;;1.10;;
10537;SDS011;5317;49.048;8.468;2022-11-22T13:10:11;3.70;;;1.63;;
10537;SDS011;5317;49.048;8.468;2022-11-22T13:12:51;4.97;;;1.17;;
10537;SDS011;5317;49.048;8.468;2022-11-22T13:15:24;3.37;;;0.97;;
10537;SDS011;5317;49.048;8.468;2022-11-22T13:17:55;3.13;;;1.63;;
10537;SDS011;5317;49.048;8.468;2022-11-22T13:20:22;3.60;;;1.30;;
10537;SDS011;5317;49.048;8.468;2022-11-22T13:22:58;1.90;;;1.23;;
10537;SDS011;5317;49.048;8.468;2022-11-22T13:25:48;2.73;;;1.10;;
10537;SDS011;5317;49.048;8.468;2022-11-22T13:28:31;2.57;;;1.10;;
10537;SDS011;5317;49.048;8.468;2022-11-22T13:31:12;2.10;;;1.10;;
10537;SDS011;5317;49.048;8.468;2022-11-22T13:33:50;2.73;;;0.80;;
10537;SDS011;5317;49.048;8.468;2022-11-22T13:39:15;1.50;;;1.20;;
10537;SDS011;5317;49.048;8.468;2022-11-22T13:41:50;1.60;;;1.10;;
10537;SDS011;5317;49.048;8.468;2022-11-22T13:44:34;1.93;;;0.90;;
10537;SDS011;5317;49.048;8.468;2022-11-22T13:47:37;1.73;;;1.03;;
10537;SDS011;5317;49.048;8.468;2022-11-22T13:53:31;2.53;;;1.57;;
10537;SDS011;5317;49.048;8.468;2022-11-22T13:59:14;1.70;;;0.90;;
10537;SDS011;5317;49.048;8.468;2022-11-22T14:04:36;1.13;;;0.90;;
10537;SDS011;5317;49.048;8.468;2022-11-22T14:07:22;1.90;;;1.40;;
10537;SDS011;5317;49.048;8.468;2022-11-22T14:10:02;5.07;;;3.70;;
10537;SDS011;5317;49.048;8.468;2022-11-22T14:12:59;2.13;;;0.97;;
10537;SDS011;5317;49.048;8.468;2022-11-22T14:16:00;1.43;;;1.00;;
10537;SDS011;5317;49.048;8.468;2022-11-22T14:18:49;1.20;;;1.00;;
10537;SDS011;5317;49.048;8.468;2022-11-22T14:21:39;1.13;;;1.03;;
10537;SDS011;5317;49.048;8.468;2022-11-22T14:24:28;1.27;;;1.17;;
10537;SDS011;5317;49.048;8.468;2022-11-22T14:27:17;0.90;;;0.70;;
10537;SDS011;5317;49.048;8.468;2022-11-22T14:30:07;2.00;;;0.63;;
10537;SDS011;5317;49.048;8.468;2022-11-22T14:36:11;2.60;;;1.07;;
10537;SDS011;5317;49.048;8.468;2022-11-22T14:38:41;2.50;;;1.00;;
10537;SDS011;5317;49.048;8.468;2022-11-22T14:44:07;1.33;;;0.87;;
10537;SDS011;5317;49.048;8.468;2022-11-22T14:46:44;3.30;;;1.20;;
10537;SDS011;5317;49.048;8.468;2022-11-22T14:49:20;1.60;;;0.90;;
10537;SDS011;5317;49.048;8.468;2022-11-22T14:51:59;2.00;;;1.00;;
10537;SDS011;5317;49.048;8.468;2022-11-22T14:54:28;1.53;;;0.90;;
10537;SDS011;5317;49.048;8.468;2022-11-22T14:57:10;3.17;;;1.37;;
10537;SDS011;5317;49.048;8.468;2022-11-22T14:59:54;1.80;;;0.90;;
10537;SDS011;5317;49.048;8.468;2022-11-22T15:06:15;1.20;;;0.80;;
10537;SDS011;5317;49.048;8.468;2022-11-22T15:12:19;2.63;;;1.00;;
10537;SDS011;5317;49.048;8.468;2022-11-22T15:18:06;1.40;;;1.00;;
10537;SDS011;5317;49.048;8.468;2022-11-22T15:20:43;1.27;;;1.03;;
10537;SDS011;5317;49.048;8.468;2022-11-22T15:23:13;1.07;;;0.97;;
10537;SDS011;5317;49.048;8.468;2022-11-22T15:25:45;1.73;;;1.13;;
10537;SDS011;5317;49.048;8.468;2022-11-22T15:28:15;4.97;;;1.13;;
10537;SDS011;5317;49.048;8.468;2022-11-22T15:30:47;3.43;;;1.30;;
10537;SDS011;5317;49.048;8.468;2022-11-22T15:33:19;2.50;;;1.10;;
10537;SDS011;5317;49.048;8.468;2022-11-22T15:35:58;1.07;;;0.97;;
10537;SDS011;5317;49.048;8.468;2022-11-22T15:38:48;3.50;;;1.10;;
10537;SDS011;5317;49.048;8.468;2022-11-22T15:41:18;4.07;;;1.20;;
10537;SDS011;5317;49.048;8.468;2022-11-22T15:43:48;4.43;;;1.10;;
10537;SDS011;5317;49.048;8.468;2022-11-22T15:46:18;1.60;;;0.93;;
10537;SDS011;5317;49.048;8.468;2022-11-22T15:48:50;2.13;;;1.30;;
10537;SDS011;5317;49.048;8.468;2022-11-22T15:51:25;2.00;;;1.27;;
10537;SDS011;5317;49.048;8.468;2022-11-22T15:56:47;3.80;;;1.30;;
10537;SDS011;5317;49.048;8.468;2022-11-22T15:59:24;2.03;;;0.93;;
10537;SDS011;5317;49.048;8.468;2022-11-22T16:01:59;2.00;;;1.00;;
10537;SDS011;5317;49.048;8.468;2022-11-22T16:04:27;2.30;;;1.40;;
10537;SDS011;5317;49.048;8.468;2022-11-22T16:06:59;1.70;;;1.60;;